createdAt,value
2023-06-19T00:02:29.917Z,32.91
2023-06-19T00:05:02.358Z,33.05
2023-06-19T00:07:35.954Z,32.84
2023-06-19T00:10:08.559Z,33.21
2023-06-19T00:12:40.846Z,33.14
2023-06-19T00:15:13.760Z,32.65
2023-06-19T00:17:46.147Z,32.84
2023-06-19T00:20:19.241Z,32.70
2023-06-19T00:22:53.142Z,33.23
2023-06-19T00:25:25.319Z,32.92
2023-06-19T00:27:57.558Z,32.90
2023-06-19T00:30:34.019Z,33.09
2023-06-19T00:33:06.949Z,33.48
2023-06-19T00:35:39.135Z,33.86
2023-06-19T00:38:11.420Z,33.72
2023-06-19T00:40:43.760Z,33.47
2023-06-19T00:43:16.034Z,33.49
2023-06-19T00:45:48.336Z,33.67
2023-06-19T00:48:21.242Z,34.48
2023-06-19T00:50:53.720Z,34.40
2023-06-19T00:53:26.716Z,34.35
2023-06-19T00:56:00.962Z,34.35
2023-06-19T00:58:34.007Z,35.34
2023-06-19T01:01:09.168Z,34.92
2023-06-19T01:03:42.943Z,35.12
2023-06-19T01:06:23.204Z,35.58
2023-06-19T01:09:05.136Z,36.23
2023-06-19T01:11:49.065Z,35.32
2023-06-19T01:14:38.094Z,35.23
2023-06-19T01:17:11.413Z,35.52
2023-06-19T01:19:43.893Z,35.64
2023-06-19T01:22:32.577Z,35.21
2023-06-19T01:25:06.846Z,35.44
2023-06-19T01:27:39.581Z,35.13
2023-06-19T01:30:14.572Z,35.52
2023-06-19T01:33:30.024Z,35.63
2023-06-19T01:36:04.729Z,35.62
2023-06-19T01:38:38.424Z,35.51
2023-06-19T01:41:12.332Z,35.48
2023-06-19T01:43:46.631Z,35.48
2023-06-19T01:46:21.901Z,35.65
2023-06-19T01:48:54.943Z,35.56
2023-06-19T01:51:27.416Z,35.66
2023-06-19T01:53:59.713Z,35.53
2023-06-19T01:56:32.205Z,35.36
2023-06-19T01:59:04.573Z,35.48
2023-06-19T02:01:37.202Z,34.97
2023-06-19T02:04:09.458Z,35.34
2023-06-19T02:06:41.622Z,34.65
2023-06-19T02:09:13.812Z,34.74
2023-06-19T02:11:46.058Z,34.62
2023-06-19T02:14:19.001Z,34.84
2023-06-19T02:16:51.259Z,34.87
2023-06-19T02:19:23.479Z,35.38
2023-06-19T02:21:55.762Z,35.26
2023-06-19T02:24:28.068Z,35.29
2023-06-19T02:27:00.568Z,35.82
2023-06-19T02:29:35.221Z,35.64
2023-06-19T02:32:07.719Z,35.39
2023-06-19T02:34:39.943Z,36.02
2023-06-19T02:37:12.129Z,35.59
2023-06-19T02:39:44.316Z,36.26
2023-06-19T02:42:16.688Z,36.44
2023-06-19T02:44:48.939Z,35.85
2023-06-19T02:47:21.140Z,35.67
2023-06-19T02:49:53.292Z,36.45
2023-06-19T02:52:25.852Z,36.05
2023-06-19T02:54:58.007Z,36.99
2023-06-19T02:57:30.262Z,36.75
2023-06-19T03:00:02.471Z,36.97
2023-06-19T03:02:34.745Z,37.46
2023-06-19T03:05:07.393Z,37.66
2023-06-19T03:07:39.506Z,37.60
2023-06-19T03:10:11.662Z,37.82
2023-06-19T03:12:43.862Z,37.94
2023-06-19T03:15:16.106Z,38.10
2023-06-19T03:17:48.887Z,38.30
2023-06-19T03:20:22.190Z,38.33
2023-06-19T03:22:54.668Z,38.49
2023-06-19T03:25:26.886Z,38.32
2023-06-19T03:27:59.053Z,38.50
2023-06-19T03:30:31.923Z,38.40
2023-06-19T03:33:04.094Z,38.76
2023-06-19T03:35:36.318Z,38.75
2023-06-19T03:38:08.476Z,38.83
2023-06-19T03:40:40.762Z,38.67
2023-06-19T03:43:13.136Z,39.87
2023-06-19T03:45:45.394Z,39.82
2023-06-19T03:48:18.764Z,39.74
2023-06-19T03:50:50.848Z,40.40
2023-06-19T03:53:23.859Z,40.38
2023-06-19T03:55:56.939Z,41.58
2023-06-19T03:58:29.094Z,42.59
2023-06-19T04:01:01.227Z,42.87
2023-06-19T04:03:33.650Z,42.85
2023-06-19T04:06:05.880Z,42.93
2023-06-19T04:08:38.262Z,43.24
2023-06-19T04:11:10.445Z,43.18
2023-06-19T04:13:42.860Z,43.30
2023-06-19T04:16:15.074Z,43.96
2023-06-19T04:18:47.297Z,43.74
2023-06-19T04:21:19.990Z,43.51
2023-06-19T04:23:52.175Z,43.44
2023-06-19T04:26:25.795Z,43.40
2023-06-19T04:54:03.440Z,43.86
2023-06-19T05:02:05.380Z,44.29
2023-06-19T05:48:01.632Z,44.59
2023-06-19T06:06:45.738Z,45.66
2023-06-19T06:13:22.754Z,47.05
2023-06-19T06:15:59.588Z,47.29
2023-06-19T06:21:55.066Z,47.27
2023-06-19T06:24:30.683Z,46.87
2023-06-19T06:27:34.004Z,47.34
2023-06-19T06:30:07.566Z,47.46
2023-06-19T06:32:44.069Z,47.27
2023-06-19T06:35:18.175Z,46.30
2023-06-19T06:37:51.305Z,44.42
2023-06-19T06:40:42.917Z,43.46
2023-06-19T06:43:16.436Z,43.86
2023-06-19T06:45:49.141Z,43.15
2023-06-19T06:48:22.158Z,43.27
2023-06-19T06:51:02.499Z,44.08
2023-06-19T06:53:34.820Z,44.08
2023-06-19T06:56:33.865Z,44.24
2023-06-19T06:59:06.172Z,44.14
2023-06-19T07:01:38.717Z,43.54
2023-06-19T07:04:19.490Z,44.04
2023-06-19T07:06:52.204Z,44.50
2023-06-19T07:09:24.416Z,44.41
2023-06-19T07:11:58.609Z,43.87
2023-06-19T07:14:31.234Z,43.55
2023-06-19T07:17:04.212Z,44.02
2023-06-19T07:19:40.899Z,43.90
2023-06-19T07:22:13.597Z,44.20
2023-06-19T07:24:45.908Z,43.44
2023-06-19T07:27:18.782Z,43.69
2023-06-19T07:29:50.957Z,44.13
2023-06-19T07:32:25.089Z,42.83
2023-06-19T07:34:57.399Z,42.78
2023-06-19T07:37:30.734Z,43.22
2023-06-19T07:40:22.825Z,43.26
2023-06-19T07:42:58.108Z,43.36
2023-06-19T07:45:37.870Z,43.30
2023-06-19T07:48:11.836Z,43.55
2023-06-19T07:50:45.197Z,43.48
2023-06-19T07:53:17.764Z,43.74
2023-06-19T07:55:52.896Z,43.78
2023-06-19T07:59:18.518Z,43.52
2023-06-19T08:01:41.795Z,43.40
2023-06-19T08:04:24.983Z,44.41
2023-06-19T08:07:07.714Z,43.67
2023-06-19T08:09:43.139Z,43.25
2023-06-19T08:12:25.261Z,42.95
2023-06-19T08:14:58.190Z,42.62
2023-06-19T08:17:47.002Z,41.96
2023-06-19T08:20:21.311Z,42.13
2023-06-19T08:22:54.201Z,41.33
2023-06-19T08:25:29.879Z,41.76
2023-06-19T08:28:02.169Z,41.93
2023-06-19T08:30:34.527Z,41.76
2023-06-19T08:33:19.362Z,42.13
2023-06-19T08:35:51.592Z,42.15
2023-06-19T08:38:24.151Z,41.89
2023-06-19T08:40:56.852Z,40.97
2023-06-19T08:43:29.484Z,41.54
2023-06-19T08:46:40.661Z,41.39
2023-06-19T08:49:14.343Z,41.93
2023-06-19T08:51:46.705Z,42.20
2023-06-19T08:54:49.683Z,42.02
2023-06-19T08:57:46.719Z,41.16
2023-06-19T09:00:31.470Z,40.36
2023-06-19T09:03:14.746Z,39.20
2023-06-19T09:05:51.894Z,37.23
2023-06-19T09:08:33.049Z,37.28
2023-06-19T09:12:34.977Z,35.82
2023-06-19T09:14:56.207Z,35.28
2023-06-19T09:17:35.195Z,35.46
2023-06-19T09:20:10.675Z,36.01
2023-06-19T09:22:45.788Z,35.86
2023-06-19T09:25:34.919Z,36.23
2023-06-19T09:28:24.456Z,37.04
2023-06-19T09:31:04.921Z,36.57
2023-06-19T09:33:38.565Z,35.89
2023-06-19T09:36:47.460Z,35.84
2023-06-19T09:39:24.772Z,35.50
2023-06-19T09:42:02.838Z,35.38
2023-06-19T09:52:23.653Z,33.14
2023-06-19T09:55:04.166Z,33.89
2023-06-19T09:57:40.570Z,32.58
2023-06-19T10:00:42.956Z,32.50
2023-06-19T10:07:07.903Z,31.92
2023-06-19T10:32:00.236Z,34.76
2023-06-19T10:35:00.152Z,36.26
2023-06-19T10:37:40.684Z,37.16
2023-06-19T10:43:07.815Z,37.75
2023-06-19T10:45:41.637Z,39.91
2023-06-19T10:48:35.465Z,41.42
2023-06-19T10:51:10.380Z,42.09
2023-06-19T10:54:33.544Z,38.72
2023-06-19T11:00:49.869Z,33.78
2023-06-19T11:03:31.950Z,34.49
2023-06-19T11:06:32.655Z,36.32
2023-06-19T11:09:11.169Z,38.18
2023-06-19T11:15:44.605Z,40.55
2023-06-19T11:18:19.122Z,40.69
2023-06-19T11:20:53.736Z,41.60
2023-06-19T11:23:31.912Z,40.59
2023-06-19T11:26:08.652Z,40.23
2023-06-19T11:28:41.132Z,38.24
2023-06-19T11:31:13.355Z,38.32
2023-06-19T11:33:45.696Z,36.71
2023-06-19T11:36:19.707Z,37.61
2023-06-19T11:38:53.934Z,36.91
2023-06-19T11:41:30.230Z,36.61
2023-06-19T11:44:07.908Z,37.52
2023-06-19T11:46:40.492Z,37.86
2023-06-19T11:49:19.484Z,38.63
2023-06-19T11:51:51.841Z,38.75
2023-06-19T11:54:24.154Z,39.46
2023-06-19T11:56:56.722Z,39.54
2023-06-19T11:59:31.963Z,39.64
2023-06-19T12:02:04.448Z,40.59
2023-06-19T12:04:37.418Z,42.27
2023-06-19T12:07:10.294Z,43.34
2023-06-19T12:09:44.781Z,43.40
2023-06-19T12:12:17.023Z,42.62
2023-06-19T12:14:49.308Z,42.81
2023-06-19T12:17:27.600Z,42.84
2023-06-19T12:20:00.350Z,42.87
2023-06-19T12:22:34.220Z,41.31
2023-06-19T12:25:06.703Z,39.76
2023-06-19T12:27:40.202Z,41.10
2023-06-19T12:30:13.150Z,41.38
2023-06-19T12:32:45.581Z,41.61
2023-06-19T12:35:18.125Z,42.67
2023-06-19T12:37:50.434Z,43.31
2023-06-19T12:40:23.144Z,43.41
2023-06-19T12:42:55.736Z,44.15
2023-06-19T12:45:28.156Z,44.07
2023-06-19T12:48:00.547Z,45.12
2023-06-19T12:50:32.906Z,45.75
2023-06-19T12:53:05.240Z,45.55
2023-06-19T12:55:48.788Z,45.06
2023-06-19T12:58:29.846Z,45.61
2023-06-19T13:01:03.151Z,45.22
2023-06-19T13:03:35.416Z,46.12
2023-06-19T13:06:07.744Z,46.68
2023-06-19T13:08:39.970Z,47.05
2023-06-19T13:11:12.219Z,47.69
2023-06-19T13:13:48.706Z,47.90
2023-06-19T13:16:41.024Z,47.53
2023-06-19T13:19:17.533Z,47.04
2023-06-19T13:21:49.887Z,47.44
2023-06-19T13:24:22.248Z,47.85
2023-06-19T13:26:55.667Z,46.10
2023-06-19T13:29:28.053Z,44.77
2023-06-19T13:32:00.419Z,40.02
2023-06-19T13:34:32.702Z,38.26
2023-06-19T13:37:05.390Z,37.27
2023-06-19T13:39:37.698Z,36.46
2023-06-19T13:42:10.406Z,34.97
2023-06-19T13:44:42.799Z,33.99
2023-06-19T13:47:15.368Z,33.43
2023-06-19T13:49:47.626Z,32.98
2023-06-19T13:52:20.247Z,32.74
2023-06-19T13:54:54.737Z,32.46
2023-06-19T13:57:28.489Z,32.15
2023-06-19T14:00:00.850Z,32.14
2023-06-19T14:02:33.208Z,32.23
2023-06-19T14:05:10.623Z,31.85
2023-06-19T14:07:44.169Z,30.49
2023-06-19T14:10:16.508Z,29.71
2023-06-19T14:12:48.820Z,30.47
2023-06-19T14:15:22.914Z,30.37
2023-06-19T14:17:55.471Z,30.88
2023-06-19T14:20:27.972Z,31.54
2023-06-19T14:23:00.400Z,30.92
2023-06-19T14:25:32.839Z,31.34
2023-06-19T14:28:08.477Z,30.90
2023-06-19T14:30:40.767Z,31.10
2023-06-19T14:33:16.511Z,32.47
2023-06-19T14:35:51.460Z,33.31
2023-06-19T14:38:29.261Z,33.67
2023-06-19T14:41:04.933Z,32.87
2023-06-19T14:43:37.426Z,32.78
2023-06-19T14:46:10.481Z,32.92
2023-06-19T14:48:42.970Z,33.67
2023-06-19T14:51:20.965Z,35.01
2023-06-19T14:53:53.390Z,35.18
2023-06-19T14:56:25.848Z,36.47
2023-06-19T14:58:58.368Z,37.52
2023-06-19T15:01:39.449Z,38.64
2023-06-19T15:04:12.122Z,37.72
2023-06-19T15:06:49.286Z,36.88
2023-06-19T15:09:21.855Z,37.05
2023-06-19T15:11:54.162Z,36.92
2023-06-19T15:14:26.696Z,36.02
2023-06-19T15:16:59.130Z,35.76
2023-06-19T15:19:32.029Z,35.44
2023-06-19T15:22:04.702Z,34.93
2023-06-19T15:24:38.046Z,34.25
2023-06-19T15:27:10.638Z,35.09
2023-06-19T15:29:43.281Z,34.41
2023-06-19T15:32:15.636Z,34.12
2023-06-19T15:34:48.008Z,34.67
2023-06-19T15:37:20.563Z,34.58
2023-06-19T15:39:56.139Z,34.32
2023-06-19T15:42:31.886Z,35.21
2023-06-19T15:45:05.913Z,35.33
2023-06-19T15:47:38.657Z,36.25
2023-06-19T15:50:11.731Z,34.60
2023-06-19T15:52:44.220Z,34.83
2023-06-19T15:55:16.652Z,35.17
2023-06-19T15:57:49.005Z,35.15
2023-06-19T16:00:21.603Z,34.24
2023-06-19T16:02:54.129Z,34.43
2023-06-19T16:05:27.317Z,34.80
2023-06-19T16:07:59.775Z,34.69
2023-06-19T16:10:32.241Z,34.89
2023-06-19T16:13:04.825Z,35.50
2023-06-19T16:15:37.139Z,35.02
2023-06-19T16:18:09.810Z,35.16
2023-06-19T16:20:42.200Z,35.40
2023-06-19T16:23:14.710Z,35.60
2023-06-19T16:25:47.175Z,35.24
2023-06-19T16:28:20.024Z,35.14
2023-06-19T16:51:14.099Z,34.74
2023-06-19T17:40:27.042Z,36.27
2023-06-19T18:04:20.374Z,37.54
2023-06-19T18:08:28.621Z,37.80
2023-06-19T18:20:00.372Z,37.61
2023-06-19T18:44:02.459Z,38.59
